createdAt,value
2023-04-17T00:02:42.022Z,10.66
2023-04-17T00:05:46.978Z,10.57
2023-04-17T00:08:50.580Z,10.75
2023-04-17T00:11:53.995Z,11.32
2023-04-17T00:14:57.342Z,11.83
2023-04-17T00:18:00.870Z,11.70
2023-04-17T00:21:04.344Z,11.18
2023-04-17T00:24:08.227Z,11.00
2023-04-17T00:27:11.820Z,10.83
2023-04-17T00:30:15.466Z,11.04
2023-04-17T00:33:18.891Z,11.29
2023-04-17T00:36:22.533Z,9.98
2023-04-17T00:39:26.644Z,10.26
2023-04-17T00:42:30.196Z,9.11
2023-04-17T00:49:28.454Z,8.78
2023-04-17T00:52:32.315Z,8.64
2023-04-17T00:55:38.965Z,8.45
2023-04-17T00:58:42.555Z,9.16
2023-04-17T01:01:46.549Z,9.02
2023-04-17T01:04:50.415Z,7.88
2023-04-17T01:07:55.209Z,6.90
2023-04-17T01:10:58.880Z,6.18
2023-04-17T01:14:02.522Z,5.69
2023-04-17T01:17:07.047Z,5.22
2023-04-17T01:20:13.096Z,5.34
2023-04-17T01:23:17.118Z,4.91
2023-04-17T01:26:22.832Z,4.77
2023-04-17T01:29:26.708Z,4.46
2023-04-17T01:32:31.543Z,4.56
2023-04-17T01:35:35.622Z,4.53
2023-04-17T01:38:39.572Z,4.14
2023-04-17T01:41:43.038Z,3.93
2023-04-17T01:44:46.699Z,4.00
2023-04-17T01:47:52.953Z,4.04
2023-04-17T01:50:56.513Z,4.17
2023-04-17T01:54:00.565Z,4.46
2023-04-17T01:57:04.069Z,4.09
2023-04-17T02:00:08.748Z,3.84
2023-04-17T02:03:15.636Z,3.86
2023-04-17T02:06:19.253Z,4.00
2023-04-17T02:09:23.133Z,4.29
2023-04-17T02:12:26.652Z,4.45
2023-04-17T02:15:30.045Z,4.57
2023-04-17T02:18:33.649Z,4.69
2023-04-17T02:21:37.368Z,4.67
2023-04-17T02:24:41.423Z,4.73
2023-04-17T02:27:44.948Z,4.59
2023-04-17T02:30:48.426Z,4.66
2023-04-17T02:33:52.902Z,4.69
2023-04-17T02:36:56.581Z,4.87
2023-04-17T02:40:00.509Z,5.19
2023-04-17T02:43:03.991Z,5.47
2023-04-17T02:46:07.669Z,5.70
2023-04-17T02:49:11.880Z,5.40
2023-04-17T02:52:16.460Z,5.25
2023-04-17T02:55:20.233Z,5.12
2023-04-17T02:58:23.690Z,5.21
2023-04-17T03:01:27.584Z,5.07
2023-04-17T03:04:31.266Z,5.18
2023-04-17T03:07:37.435Z,5.18
2023-04-17T03:10:43.189Z,5.28
2023-04-17T03:13:46.742Z,5.39
2023-04-17T03:16:50.581Z,4.84
2023-04-17T03:19:54.177Z,4.76
2023-04-17T03:22:57.661Z,4.73
2023-04-17T03:26:01.794Z,4.53
2023-04-17T03:29:08.202Z,4.59
2023-04-17T03:32:12.108Z,5.02
2023-04-17T03:35:15.722Z,5.31
2023-04-17T03:38:20.117Z,5.32
2023-04-17T03:41:23.718Z,5.62
2023-04-17T03:44:27.451Z,6.05
2023-04-17T03:47:34.082Z,6.36
2023-04-17T03:50:37.856Z,6.72
2023-04-17T03:53:41.552Z,6.81
2023-04-17T03:56:47.972Z,6.81
2023-04-17T03:59:51.666Z,6.56
2023-04-17T04:02:59.644Z,6.24
2023-04-17T04:06:13.681Z,6.00
2023-04-17T04:09:22.054Z,5.70
2023-04-17T04:12:26.865Z,5.74
2023-04-17T04:15:30.235Z,5.86
2023-04-17T04:18:37.951Z,6.30
2023-04-17T04:21:44.198Z,6.88
2023-04-17T04:24:49.547Z,7.32
2023-04-17T04:27:57.027Z,7.07
2023-04-17T04:31:05.642Z,7.16
2023-04-17T04:34:18.124Z,7.42
2023-04-17T04:37:30.762Z,7.78
2023-04-17T04:40:44.601Z,7.99
2023-04-17T04:43:48.323Z,8.28
2023-04-17T04:46:56.265Z,8.43
2023-04-17T04:50:03.108Z,8.49
2023-04-17T04:53:19.887Z,7.95
2023-04-17T04:56:32.364Z,7.67
2023-04-17T04:59:38.977Z,7.75
2023-04-17T05:03:07.311Z,7.84
2023-04-17T05:06:12.202Z,8.12
2023-04-17T05:09:20.592Z,8.32
2023-04-17T05:12:25.473Z,8.60
2023-04-17T05:15:29.054Z,8.71
2023-04-17T05:18:32.917Z,8.83
2023-04-17T05:21:37.091Z,8.84
2023-04-17T05:24:40.764Z,8.75
2023-04-17T05:27:44.378Z,8.52
2023-04-17T05:30:48.810Z,8.35
2023-04-17T05:33:58.702Z,8.28
2023-04-17T05:37:04.786Z,8.25
2023-04-17T05:40:09.098Z,8.11
2023-04-17T05:43:13.892Z,7.60
2023-04-17T05:46:17.578Z,7.33
2023-04-17T05:49:23.296Z,7.18
2023-04-17T05:52:26.889Z,7.08
2023-04-17T05:55:30.760Z,7.16
2023-04-17T05:58:37.624Z,7.38
2023-04-17T06:01:42.190Z,7.50
2023-04-17T06:04:46.498Z,7.56
2023-04-17T06:07:51.026Z,7.59
2023-04-17T06:10:57.300Z,7.59
2023-04-17T06:14:01.033Z,7.50
2023-04-17T06:17:04.682Z,7.46
2023-04-17T06:20:13.285Z,7.64
2023-04-17T06:23:17.414Z,7.66
2023-04-17T06:26:20.868Z,7.77
2023-04-17T06:29:26.751Z,7.80
2023-04-17T06:32:30.459Z,7.73
2023-04-17T06:35:41.172Z,7.47
2023-04-17T06:39:01.467Z,7.32
2023-04-17T06:42:07.203Z,7.35
2023-04-17T06:45:15.320Z,7.28
2023-04-17T06:48:34.106Z,7.46
2023-04-17T06:51:37.575Z,7.64
2023-04-17T06:54:41.124Z,7.60
2023-04-17T06:57:44.541Z,7.36
2023-04-17T07:00:48.770Z,7.15
2023-04-17T07:03:52.407Z,7.07
2023-04-17T07:06:56.042Z,7.25
2023-04-17T07:10:01.170Z,7.36
2023-04-17T07:13:04.884Z,7.32
2023-04-17T07:16:10.066Z,7.46
2023-04-17T07:19:14.323Z,7.55
2023-04-17T07:22:17.968Z,7.46
2023-04-17T07:25:21.684Z,7.29
2023-04-17T07:28:26.007Z,7.42
2023-04-17T07:31:37.237Z,7.57
2023-04-17T07:34:43.050Z,7.52
2023-04-17T07:37:46.535Z,7.45
2023-04-17T07:40:49.804Z,7.43
2023-04-17T07:43:53.085Z,7.46
2023-04-17T07:46:56.535Z,7.73
2023-04-17T07:49:59.843Z,7.60
2023-04-17T07:53:03.199Z,7.74
2023-04-17T07:56:07.381Z,7.67
2023-04-17T07:59:11.352Z,7.84
2023-04-17T08:02:16.655Z,7.63
2023-04-17T08:05:20.198Z,7.75
2023-04-17T08:08:24.476Z,7.85
2023-04-17T08:11:27.682Z,7.90
2023-04-17T08:14:31.063Z,7.78
2023-04-17T08:17:34.832Z,7.77
2023-04-17T08:20:38.247Z,7.94
2023-04-17T08:23:42.518Z,7.74
2023-04-17T08:26:45.801Z,7.47
2023-04-17T08:29:49.227Z,7.63
2023-04-17T08:32:52.966Z,7.57
2023-04-17T08:35:56.311Z,7.38
2023-04-17T08:38:59.659Z,7.45
2023-04-17T08:42:19.196Z,7.35
2023-04-17T08:45:27.430Z,7.47
2023-04-17T08:48:32.422Z,7.56
2023-04-17T08:51:36.167Z,7.71
2023-04-17T08:54:40.204Z,7.77
2023-04-17T08:58:04.512Z,7.46
2023-04-17T09:01:13.962Z,7.26
2023-04-17T09:04:36.784Z,7.14
2023-04-17T09:07:41.547Z,7.00
2023-04-17T09:10:47.078Z,6.94
2023-04-17T09:13:50.620Z,6.88
2023-04-17T09:16:58.522Z,6.77
2023-04-17T09:20:08.146Z,6.72
2023-04-17T09:23:11.672Z,6.64
2023-04-17T09:26:17.004Z,6.60
2023-04-17T09:29:20.847Z,6.67
2023-04-17T09:32:24.394Z,6.66
2023-04-17T09:35:28.060Z,6.56
2023-04-17T09:38:38.860Z,6.52
2023-04-17T09:41:42.449Z,6.45
2023-04-17T09:44:45.837Z,6.38
2023-04-17T09:47:49.720Z,6.47
2023-04-17T09:50:53.449Z,6.52
2023-04-17T09:53:59.736Z,6.57
2023-04-17T09:57:04.414Z,6.70
2023-04-17T10:00:12.858Z,6.83
2023-04-17T10:03:18.715Z,6.98
2023-04-17T10:06:22.326Z,7.11
2023-04-17T10:09:25.794Z,7.11
2023-04-17T10:12:30.394Z,7.14
2023-04-17T10:15:41.367Z,7.05
2023-04-17T10:18:44.720Z,7.01
2023-04-17T10:21:51.470Z,6.92
2023-04-17T10:25:13.535Z,6.80
2023-04-17T10:28:50.802Z,6.69
2023-04-17T10:32:24.915Z,6.52
2023-04-17T10:35:28.138Z,6.49
2023-04-17T10:38:37.588Z,6.36
2023-04-17T10:42:05.560Z,6.25
2023-04-17T10:45:20.336Z,6.12
2023-04-17T10:48:46.263Z,5.98
2023-04-17T10:51:49.622Z,5.86
2023-04-17T10:55:16.677Z,5.75
2023-04-17T10:58:20.181Z,5.62
2023-04-17T11:01:43.897Z,5.53
2023-04-17T11:04:47.475Z,5.39
2023-04-17T11:07:53.765Z,5.18
2023-04-17T11:11:00.107Z,4.97
2023-04-17T11:14:12.878Z,4.72
2023-04-17T11:17:17.683Z,4.50
2023-04-17T11:20:26.515Z,4.32
2023-04-17T11:23:36.944Z,4.19
2023-04-17T11:26:47.453Z,4.01
2023-04-17T11:29:50.830Z,3.89
2023-04-17T11:32:54.266Z,3.76
2023-04-17T11:35:57.721Z,3.66
2023-04-17T11:39:01.229Z,3.53
2023-04-17T11:42:04.738Z,3.42
2023-04-17T11:45:08.818Z,3.28
2023-04-17T11:48:13.678Z,3.17
2023-04-17T11:51:19.452Z,3.08
2023-04-17T11:54:27.335Z,2.97
2023-04-17T11:57:30.654Z,2.84
2023-04-17T12:00:38.909Z,2.75
2023-04-17T12:03:44.809Z,2.67
2023-04-17T12:06:48.917Z,2.56
2023-04-17T12:10:00.898Z,2.48
2023-04-17T12:13:05.415Z,2.42
2023-04-17T12:16:11.805Z,2.38
2023-04-17T12:19:19.025Z,2.32
2023-04-17T12:22:25.684Z,2.24
2023-04-17T12:25:29.352Z,2.18
2023-04-17T12:28:32.988Z,2.13
2023-04-17T12:31:36.601Z,2.06
2023-04-17T12:34:40.306Z,1.97
2023-04-17T12:37:49.334Z,1.91
2023-04-17T12:40:55.373Z,1.83
2023-04-17T12:44:03.604Z,1.80
2023-04-17T12:47:07.545Z,1.72
2023-04-17T12:50:12.871Z,1.67
2023-04-17T12:53:18.597Z,1.60
2023-04-17T12:56:22.047Z,1.55
2023-04-17T12:59:25.631Z,1.48
2023-04-17T13:02:32.149Z,1.41
2023-04-17T13:05:35.873Z,1.32
2023-04-17T13:08:40.992Z,1.30
2023-04-17T13:11:44.354Z,1.27
2023-04-17T13:14:47.858Z,1.23
2023-04-17T13:17:53.138Z,1.18
2023-04-17T13:20:57.592Z,1.11
2023-04-17T13:24:01.299Z,1.05
2023-04-17T13:27:05.134Z,0.97
2023-04-17T13:30:09.157Z,0.93
2023-04-17T13:33:15.739Z,0.87
2023-04-17T13:36:28.034Z,0.84
2023-04-17T13:39:31.939Z,0.73
2023-04-17T13:42:35.620Z,0.68
2023-04-17T13:45:42.154Z,0.61
2023-04-17T13:48:45.962Z,0.58
2023-04-17T13:51:55.249Z,0.53
2023-04-17T13:55:23.440Z,0.51
2023-04-17T13:58:26.933Z,0.48
2023-04-17T14:01:30.745Z,0.44
2023-04-17T14:04:34.216Z,0.44
2023-04-17T14:07:40.994Z,0.42
2023-04-17T14:10:44.417Z,0.40
2023-04-17T14:13:47.754Z,0.35
2023-04-17T14:16:51.670Z,0.31
2023-04-17T14:19:54.933Z,0.32
2023-04-17T14:23:07.362Z,0.26
2023-04-17T14:26:14.917Z,0.25
2023-04-17T14:29:18.423Z,0.24
2023-04-17T14:32:21.832Z,0.17
2023-04-17T14:35:25.818Z,0.15
2023-04-17T14:38:29.132Z,0.14
2023-04-17T14:41:34.796Z,0.11
2023-04-17T14:44:38.114Z,0.07
2023-04-17T14:47:44.843Z,0.06
2023-04-17T14:50:48.464Z,0.01
2023-04-17T14:53:54.881Z,-0.02
2023-04-17T14:56:58.571Z,-0.02
2023-04-17T15:00:02.035Z,-0.04
2023-04-17T15:03:05.576Z,-0.10
2023-04-17T15:06:09.791Z,-0.10
2023-04-17T15:09:18.775Z,-0.14
2023-04-17T15:12:22.386Z,-0.13
2023-04-17T15:15:25.677Z,-0.17
2023-04-17T15:18:29.041Z,-0.20
2023-04-17T15:21:32.329Z,-0.17
2023-04-17T15:24:37.766Z,-0.17
2023-04-17T15:27:41.044Z,-0.24
2023-04-17T15:30:44.334Z,-0.25
2023-04-17T15:33:48.238Z,-0.30
2023-04-17T15:36:51.478Z,-0.28
2023-04-17T15:39:54.784Z,-0.31
2023-04-17T15:42:58.140Z,-0.34
2023-04-17T15:46:02.840Z,-0.37
2023-04-17T15:49:09.178Z,-0.37
2023-04-17T15:52:12.812Z,-0.41
2023-04-17T15:55:16.555Z,-0.45
2023-04-17T15:58:20.374Z,-0.49
2023-04-17T16:01:23.769Z,-0.51
2023-04-17T16:04:30.180Z,-0.52
2023-04-17T16:07:51.850Z,-0.54
2023-04-17T16:10:55.149Z,-0.59
2023-04-17T16:13:58.636Z,-0.65
2023-04-17T16:17:02.179Z,-0.70
2023-04-17T16:20:06.715Z,-0.76
2023-04-17T16:23:10.255Z,-0.82
2023-04-17T16:26:15.790Z,-0.87
2023-04-17T16:29:19.131Z,-0.89
2023-04-17T16:32:25.254Z,-0.94
2023-04-17T16:35:30.550Z,-0.99
2023-04-17T16:38:36.119Z,-1.03
2023-04-17T16:41:39.697Z,-1.07
2023-04-17T16:44:42.992Z,-1.14
2023-04-17T16:47:46.549Z,-1.21
2023-04-17T16:50:52.923Z,-1.22
2023-04-17T16:53:56.269Z,-1.22
2023-04-17T16:56:59.581Z,-1.21
2023-04-17T17:00:03.374Z,-1.28
2023-04-17T17:03:06.899Z,-1.27
2023-04-17T17:06:13.540Z,-1.25
2023-04-17T17:09:17.185Z,-1.22
2023-04-17T17:12:20.695Z,-1.25
2023-04-17T17:15:24.158Z,-1.27
2023-04-17T17:18:27.505Z,-1.34
2023-04-17T17:21:34.086Z,-1.41
2023-04-17T17:24:37.444Z,-1.47
2023-04-17T17:27:40.816Z,-1.48
2023-04-17T17:30:44.213Z,-1.55
2023-04-17T17:33:50.537Z,-1.59
2023-04-17T17:36:53.863Z,-1.63
2023-04-17T17:39:57.178Z,-1.70
2023-04-17T17:43:03.423Z,-1.76
2023-04-17T17:46:16.021Z,-1.83
2023-04-17T17:49:19.540Z,-1.85
2023-04-17T17:52:47.596Z,-1.93
2023-04-17T17:55:55.537Z,-1.96
2023-04-17T17:58:58.959Z,-2.00
2023-04-17T18:02:02.628Z,-2.05
2023-04-17T18:05:07.078Z,-2.04
2023-04-17T18:08:36.608Z,-2.05
2023-04-17T18:11:40.060Z,-2.04
2023-04-17T18:14:43.414Z,-2.03
2023-04-17T18:17:47.250Z,-2.05
2023-04-17T18:20:51.193Z,-2.14
2023-04-17T18:23:54.552Z,-2.18
2023-04-17T18:26:57.912Z,-2.25
2023-04-17T18:30:01.494Z,-2.30
2023-04-17T18:33:04.958Z,-2.35
2023-04-17T18:36:09.270Z,-2.42
2023-04-17T18:39:14.939Z,-2.45
2023-04-17T18:42:18.284Z,-2.46
2023-04-17T18:45:22.200Z,-2.52
2023-04-17T18:48:25.775Z,-2.59
2023-04-17T18:51:29.192Z,-2.63
2023-04-17T18:54:40.551Z,-2.62
2023-04-17T18:57:45.572Z,-2.62
2023-04-17T19:00:49.001Z,-2.62
2023-04-17T19:04:17.193Z,-2.62
2023-04-17T19:07:20.564Z,-2.72
2023-04-17T19:10:27.674Z,-2.77
2023-04-17T19:13:32.731Z,-2.80
2023-04-17T19:16:36.136Z,-2.88
2023-04-17T19:19:39.980Z,-2.90
2023-04-17T19:22:43.804Z,-2.91
2023-04-17T19:25:54.868Z,-2.98
2023-04-17T19:29:23.180Z,-3.05
2023-04-17T19:32:31.549Z,-3.07
2023-04-17T19:35:35.315Z,-3.18
2023-04-17T19:38:38.673Z,-3.21
2023-04-17T19:41:43.406Z,-3.22
2023-04-17T19:44:47.445Z,-3.30
2023-04-17T19:48:16.280Z,-3.42
2023-04-17T19:51:23.136Z,-3.49
2023-04-17T19:54:29.908Z,-3.55
2023-04-17T19:57:37.260Z,-3.58
2023-04-17T20:00:43.715Z,-3.56
2023-04-17T20:03:52.144Z,-3.53
2023-04-17T20:06:59.582Z,-3.56
2023-04-17T20:10:18.821Z,-3.56
2023-04-17T20:13:25.700Z,-3.66
2023-04-17T20:16:29.141Z,-3.66
2023-04-17T20:19:35.622Z,-3.64
2023-04-17T20:22:45.054Z,-3.64
2023-04-17T20:25:48.812Z,-3.60
2023-04-17T20:28:55.429Z,-3.63
2023-04-17T20:32:00.057Z,-3.69
2023-04-17T20:35:11.423Z,-3.71
2023-04-17T20:38:16.881Z,-3.69
2023-04-17T20:41:20.786Z,-3.63
2023-04-17T20:44:49.665Z,-3.60
2023-04-17T20:47:56.940Z,-3.62
2023-04-17T20:51:06.325Z,-3.62
2023-04-17T20:54:09.720Z,-3.77
2023-04-17T20:57:13.109Z,-3.93
2023-04-17T21:00:17.004Z,-3.94
2023-04-17T21:03:20.814Z,-3.88
2023-04-17T21:06:25.146Z,-3.91
2023-04-17T21:09:53.401Z,-3.86
2023-04-17T21:12:56.737Z,-3.84
2023-04-17T21:16:03.120Z,-3.94
2023-04-17T21:19:06.637Z,-4.01
2023-04-17T21:22:11.497Z,-3.95
2023-04-17T21:25:22.299Z,-3.95
2023-04-17T21:28:28.507Z,-3.90
2023-04-17T21:31:38.909Z,-3.83
2023-04-17T21:35:07.805Z,-3.67
2023-04-17T21:38:11.337Z,-3.55
2023-04-17T21:41:14.841Z,-3.48
2023-04-17T21:44:18.160Z,-3.38
2023-04-17T21:47:21.726Z,-3.30
2023-04-17T21:50:25.198Z,-3.24
2023-04-17T21:53:28.581Z,-3.25
2023-04-17T21:56:32.524Z,-3.15
2023-04-17T21:59:36.273Z,-3.14
2023-04-17T22:02:40.002Z,-2.94
2023-04-17T22:05:43.537Z,-2.83
2023-04-17T22:08:47.139Z,-2.65
2023-04-17T22:11:51.178Z,-2.75
2023-04-17T22:14:54.540Z,-2.83
2023-04-17T22:17:59.624Z,-2.79
2023-04-17T22:21:03.048Z,-2.84
2023-04-17T22:24:06.674Z,-2.87
2023-04-17T22:27:10.108Z,-2.87
2023-04-17T22:30:14.352Z,-2.75
2023-04-17T22:33:17.773Z,-2.45
2023-04-17T22:36:21.168Z,-2.24
2023-04-17T22:39:24.567Z,-2.22
2023-04-17T22:42:28.046Z,-2.14
2023-04-17T22:45:31.583Z,-2.08
2023-04-17T22:48:37.611Z,-2.01
2023-04-17T22:51:41.955Z,-2.07
2023-04-17T22:54:45.501Z,-2.00
2023-04-17T22:57:48.861Z,-1.75
2023-04-17T23:01:17.938Z,-1.70
2023-04-17T23:04:33.579Z,-1.56
2023-04-17T23:07:37.166Z,-1.42
2023-04-17T23:10:44.472Z,-1.38
2023-04-17T23:13:48.245Z,-1.25
2023-04-17T23:17:16.971Z,-0.75
2023-04-17T23:20:25.943Z,0.06
2023-04-17T23:23:29.547Z,0.10
2023-04-17T23:26:35.350Z,0.25
2023-04-17T23:29:42.680Z,0.75
2023-04-17T23:32:51.486Z,1.58
2023-04-17T23:35:54.922Z,1.80
2023-04-17T23:38:58.336Z,1.81
2023-04-17T23:42:07.899Z,1.90
2023-04-17T23:45:11.844Z,1.86
2023-04-17T23:48:17.916Z,1.98
2023-04-17T23:51:21.707Z,1.79
2023-04-17T23:54:32.617Z,1.96
2023-04-17T23:57:38.559Z,2.15
